METAR Data
IDs: Format: Raw Decoded Include TAF

Data at: 1333 UTC 14 Dec 2019

PARS 141256Z AUTO 06005KT 10SM FEW050 BKN065 M06/M07 A2942 RMK AO2 SNE15B38E50 SLP965 P0000 T10561072 FZRANO $
PARS 141156Z AUTO 05004KT 9SM -SN BKN046 OVC070 M06/M08 A2944 RMK AO2 SNB15 SLP973 P0000 60000 70002 T10611078 11061 21094 58002 FZRANO $
PARS 141056Z AUTO 05005KT 10SM OVC060 M07/M08 A2945 RMK AO2 SLP975 T10721078 FZRANO $
PARS 140956Z AUTO 00000KT 10SM BKN065 M09/M11 A2945 RMK AO2 SLP975 T10941106 FZRANO $
PARS 140856Z AUTO 00000KT 10SM FEW018 OVC049 M07/M09 A2945 RMK AO2 SLP975 60000 T10721089 58004 FZRANO $
PARS 140756Z AUTO 00000KT 10SM SCT024 BKN041 OVC049 M07/M09 A2946 RMK AO2 SNB18E41 SLP977 P0000 T10671089 410671156 FZRANO $
PARS 140724Z AUTO 08003KT 9SM -SN FEW024 BKN040 OVC049 M07/M09 A2946 RMK AO2 SNB18 P0000 FZRANO $
PARS 140656Z AUTO 07003KT 10SM FEW019 OVC026 M07/M09 A2946 RMK AO2 SLP979 T10671089 FZRANO $
PARS 140613Z AUTO VRB03KT 10SM BKN015 OVC028 M07/M09 A2946 RMK AO2 FZRANO $
PARS 140556Z AUTO 09004KT 10SM OVC013 M07/M09 A2946 RMK AO2 SNB24E49 SLP979 P0000 60002 T10671089 11067 21078 50001 FZRANO $
PARS 140456Z AUTO 09004KT 10SM OVC013 M07/M09 A2946 RMK AO2 SNE30 SLP981 P0000 T10721089 FZRANO $
PARS 140356Z AUTO 00000KT 6SM -SN BR BKN013 OVC031 M08/M09 A2947 RMK AO2 SLP983 P0001 T10781094 FZRANO $
PARS 140330Z AUTO 09005KT 4SM -SN BR OVC013 M08/M09 A2947 RMK AO2 P0000 FZRANO $
PARS 140320Z AUTO 10004KT 2SM -SN BR OVC013 M08/M09 A2947 RMK AO2 P0000 FZRANO $
PARS 140303Z AUTO 09003KT 4SM -SN BR BKN013 OVC024 M08/M09 A2946 RMK AO2 P0000 FZRANO $
PARS 140256Z AUTO 08003KT 2 1/2SM -SN BR BKN013 OVC024 M08/M09 A2946 RMK AO2 VIS 2V3 SLP980 P0000 60001 T10781094 50005 FZRANO $
PARS 140246Z AUTO 10004KT 1 1/2SM -SN BR BKN013 BKN024 OVC033 M08/M09 A2946 RMK AO2 P0000 FZRANO $
PARS 140231Z AUTO 09004KT 2 1/2SM -SN BR SCT014 BKN022 OVC044 M08/M09 A2946 RMK AO2 P0000 FZRANO $
PARS 140223Z AUTO 00000KT 3SM -SN BR FEW014 BKN029 OVC044 M08/M10 A2946 RMK AO2 P0000 FZRANO $
PARS 140211Z AUTO VRB03KT 2 1/2SM -SN BR FEW016 BKN026 OVC031 M08/M10 A2945 RMK AO2 P0000 FZRANO $
PARS 140156Z AUTO 09005KT 1 1/2SM -SN BR FEW013 BKN026 OVC032 M08/M10 A2945 RMK AO2 SLP978 P0001 T10781100 FZRANO $
PARS 140142Z AUTO 08006KT 1 1/2SM -SN BR SCT013 OVC026 M08/M10 A2945 RMK AO2 P0001 FZRANO $
PARS 140138Z AUTO VRB04KT 1SM -SN BR BKN013 OVC026 M08/M10 A2945 RMK AO2 P0000 FZRANO RVRNO $
PARS 140128Z AUTO 07003KT 1 3/4SM -SN BR OVC013 M08/M10 A2945 RMK AO2 P0000 FZRANO $
PARS 140056Z AUTO 10004KT 9SM -SN OVC013 M08/M10 A2944 RMK AO2 SLP974 P0000 T10781100 FZRANO $
PARS 140048Z AUTO 12004KT 9SM -SN OVC013 M08/M10 A2944 RMK AO2 P0000 FZRANO $
PARS 132356Z AUTO 08005KT 6SM -SN BR OVC015 M08/M10 A2943 RMK AO2 SLP970 P0000 60000 T10781100 11072 21106 51016 FZRANO $
PARS 132340Z AUTO VRB05KT 3SM -SN BR OVC015 M08/M10 A2943 RMK AO2 P0000 FZRANO $
PARS 132334Z AUTO 08005KT 1 1/2SM -SN BR BKN015 OVC025 M08/M10 A2943 RMK AO2 P0000 FZRANO $
PARS 132256Z AUTO VRB05KT 2SM -SN BR OVC017 M08/M10 A2942 RMK AO2 VIS 1V5 SNB42 SLP967 P0000 T10781100 FZRANO $
PARS 132156Z AUTO 08004KT 10SM SCT021 OVC026 M08/M10 A2940 RMK AO2 SLP961 T10781100 FZRANO $
PARS 132135Z AUTO VRB03KT 10SM OVC028 M08/M10 A2940 RMK AO2 FZRANO $
PARS 132056Z AUTO 06005KT 10SM OVC034 M08/M10 A2939 RMK AO2 SLP955 60000 T10831100 51022 FZRANO $
PARS 131956Z AUTO VRB03KT 10SM BKN046 OVC100 M09/M11 A2936 RMK AO2 SNB15E40 SLP948 P0000 T10891106 FZRANO $
PARS 131856Z AUTO 00000KT 10SM SCT050 BKN065 OVC090 M11/M12 A2935 RMK AO2 SNB17E32 SLP942 P0000 T11061117 FZRANO $
PARS 131756Z AUTO 00000KT 10SM FEW039 BKN065 OVC090 M11/M12 A2932 RMK AO2 SLP933 T11061117 11100 21156 53010 FZRANO $
PARS 131556Z AUTO 00000KT 10SM OVC070 M12/M13 A2929 RMK AO2 SLP923 T11221133 FZRANO $
PARS 131456Z AUTO 25003KT 10SM OVC075 M13/M14 A2929 RMK AO2 SLP922 T11281144 50007 FZRANO $
PARS 131356Z AUTO 00000KT 10SM OVC070 M14/M16 A2929 RMK AO2 SLP923 T11391156 FZRANO $
PARS 131256Z AUTO 25003KT 10SM CLR M16/M17 A2928 RMK AO2 SLP920 T11561167 FZRANO $
PARS 131156Z AUTO 27003KT 10SM CLR M15/M17 A2927 RMK AO2 SLP916 T11501167 11094 21150 50000 FZRANO $
PARS 131056Z AUTO 25004KT 10SM CLR M14/M16 A2928 RMK AO2 SLP920 T11391156 FZRANO $
PARS 130956Z AUTO 26003KT 10SM CLR M13/M14 A2928 RMK AO2 SLP918 T11331144 FZRANO $
PARS 130856Z AUTO 25007KT 10SM CLR M13/M14 A2927 RMK AO2 SLP916 T11331144 55000 FZRANO $
PARS 130756Z AUTO 25004KT 10SM CLR M12/M13 A2927 RMK AO2 SLP915 T11171133 410441122 FZRANO $
PARS 130656Z AUTO 24003KT 10SM CLR M11/M12 A2926 RMK AO2 SLP913 T11111122 FZRANO $
PARS 130556Z AUTO 00000KT 10SM SCT100 M09/M11 A2927 RMK AO2 SLP915 T10941111 11056 21094 56008 FZRANO $
PARS 130456Z AUTO 00000KT 10SM SCT120 M07/M09 A2927 RMK AO2 SLP916 T10721094 FZRANO $
PARS 130356Z AUTO 00000KT 10SM BKN120 M07/M09 A2929 RMK AO2 SLP920 T10671089 FZRANO $
PARS 130256Z AUTO 07006KT 10SM FEW090 BKN120 M07/M09 A2930 RMK AO2 SLP923 T10671089 55001 FZRANO $
PARS 130156Z AUTO 07007KT 10SM OVC110 M06/M08 A2929 RMK AO2 SLP920 T10561083 FZRANO $